Time;durP1;ratioP1;P1;durP2;ratioP2;P2;SDS_P1;SDS_P2;PMS_P1;PMS_P2;Temp;Humidity;BMP_temperature;BMP_pressure;BME280_temperature;BME280_humidity;BME280_pressure;Samples;Min_cycle;Max_cycle;Signal;HPM_P1;HPM_P2
2021/08/18 00:02:57;;;;;;;3.92;1.50;;;;;;;12.29;87.65;100314.69;8573173;33;20486;-75
2021/08/18 00:08:02;;;;;;;1.50;1.40;;;;;;;12.44;87.02;100314.28;8577988;33;20147;-74
2021/08/18 00:13:05;;;;;;;0.93;0.93;;;;;;;12.20;88.44;100322.69;8579223;33;20920;-75
2021/08/18 00:18:10;;;;;;;2.20;1.50;;;;;;;12.43;87.88;100304.50;8575501;33;20445;-74
2021/08/18 00:23:13;;;;;;;5.05;0.90;;;;;;;12.11;89.42;100313.56;8579022;33;20247;-75
2021/08/18 00:28:16;;;;;;;1.23;1.23;;;;;;;12.15;88.97;100301.56;8589217;33;20637;-74
2021/08/18 00:33:20;;;;;;;0.82;0.82;;;;;;;12.35;88.75;100299.81;8581129;33;20792;-75
2021/08/18 00:38:24;;;;;;;1.08;1.05;;;;;;;12.35;88.61;100305.19;8576936;33;20507;-75
2021/08/18 00:43:27;;;;;;;1.75;1.55;;;;;;;12.41;87.92;100301.94;8578481;33;20520;-75
2021/08/18 00:48:31;;;;;;;1.08;1.08;;;;;;;12.39;88.47;100293.97;8578666;33;20728;-75
2021/08/18 00:53:34;;;;;;;1.65;1.58;;;;;;;12.39;88.20;100290.44;8580967;33;20231;-75
2021/08/18 00:58:37;;;;;;;3.67;2.17;;;;;;;12.49;88.43;100295.88;8579662;33;20628;-75
2021/08/18 01:03:42;;;;;;;0.45;0.45;;;;;;;12.28;89.30;100286.03;8587263;33;20575;-75
2021/08/18 01:08:45;;;;;;;1.05;1.05;;;;;;;12.48;88.58;100286.94;8584068;33;20194;-75
2021/08/18 01:13:48;;;;;;;1.55;1.45;;;;;;;12.39;88.65;100287.75;8584043;33;20701;-73
2021/08/18 01:18:52;;;;;;;4.40;2.28;;;;;;;12.62;87.37;100285.69;8581811;33;20205;-75
2021/08/18 01:23:55;;;;;;;1.20;1.20;;;;;;;12.52;87.83;100282.97;8582949;33;20538;-75
2021/08/18 01:29:00;;;;;;;2.00;1.60;;;;;;;12.59;87.83;100289.50;8585626;33;20531;-75
2021/08/18 01:34:05;;;;;;;1.58;1.48;;;;;;;12.70;87.54;100276.88;8584817;33;20514;-75
2021/08/18 01:39:11;;;;;;;1.05;1.05;;;;;;;12.62;87.93;100277.59;8583927;33;20412;-75
2021/08/18 01:44:15;;;;;;;1.27;1.25;;;;;;;12.68;87.79;100273.50;8583281;33;20238;-75
2021/08/18 01:49:18;;;;;;;0.40;0.40;;;;;;;12.68;87.93;100286.97;8586258;33;20529;-74
2021/08/18 01:54:21;;;;;;;0.85;0.85;;;;;;;12.71;87.47;100281.28;8587985;33;20426;-74
2021/08/18 01:59:27;;;;;;;2.33;1.58;;;;;;;12.63;87.87;100281.13;8588587;33;20405;-75
2021/08/18 02:04:30;;;;;;;1.95;1.85;;;;;;;12.58;88.05;100287.78;8601255;33;20132;-74
2021/08/18 02:09:33;;;;;;;1.27;1.20;;;;;;;12.59;88.02;100267.94;8601823;33;20132;-74
2021/08/18 02:14:37;;;;;;;10.32;1.60;;;;;;;12.74;87.47;100281.00;8603022;33;20298;-74
2021/08/18 02:19:40;;;;;;;3.33;1.80;;;;;;;12.74;87.31;100283.69;8607727;33;20559;-74
2021/08/18 02:24:43;;;;;;;2.63;0.73;;;;;;;12.65;87.43;100287.25;8606887;33;20480;-74
2021/08/18 02:29:48;;;;;;;1.55;1.45;;;;;;;12.52;87.87;100277.56;8607173;33;21051;-73
2021/08/18 02:34:51;;;;;;;1.40;1.40;;;;;;;12.63;87.04;100290.06;8606503;33;20717;-73
2021/08/18 02:39:54;;;;;;;3.58;2.20;;;;;;;12.37;88.16;100281.66;8607006;33;20140;-74
2021/08/18 02:44:59;;;;;;;0.65;0.65;;;;;;;12.60;87.27;100277.72;8608857;33;20954;-74
2021/08/18 02:50:03;;;;;;;1.75;0.95;;;;;;;12.67;86.98;100278.03;8606814;33;20247;-73
2021/08/18 02:55:08;;;;;;;1.85;1.65;;;;;;;12.70;86.87;100279.56;8604477;33;20205;-73
2021/08/18 03:00:14;;;;;;;2.30;2.20;;;;;;;12.74;86.47;100275.63;8603419;33;20382;-74
2021/08/18 03:05:17;;;;;;;4.75;1.67;;;;;;;12.68;86.58;100276.19;8601484;33;20140;-73
2021/08/18 03:10:20;;;;;;;0.40;0.40;;;;;;;12.63;86.50;100270.34;8601817;33;20197;-73
2021/08/18 03:15:24;;;;;;;1.17;1.17;;;;;;;12.53;86.66;100273.03;8602864;33;20242;-73
2021/08/18 03:20:27;;;;;;;1.35;1.35;;;;;;;12.60;86.77;100271.50;8587818;33;21125;-74
2021/08/18 03:25:31;;;;;;;3.75;3.45;;;;;;;12.75;85.98;100275.47;8586580;33;20415;-74
2021/08/18 03:30:35;;;;;;;0.93;0.93;;;;;;;12.62;86.48;100265.97;8585653;33;20399;-73
2021/08/18 03:35:38;;;;;;;0.75;0.75;;;;;;;12.67;86.58;100267.25;8585384;33;20672;-74
2021/08/18 03:40:41;;;;;;;5.97;1.75;;;;;;;12.61;86.43;100278.56;8584778;33;20242;-73
2021/08/18 03:45:45;;;;;;;0.73;0.73;;;;;;;12.74;86.05;100262.13;8581872;33;20144;-73
2021/08/18 03:50:48;;;;;;;3.03;1.75;;;;;;;12.70;86.02;100275.06;8583451;33;20450;-74
2021/08/18 03:55:51;;;;;;;1.30;0.90;;;;;;;12.56;85.95;100267.34;8585473;33;21095;-73
2021/08/18 04:00:56;;;;;;;1.08;1.08;;;;;;;12.49;86.63;100272.47;8597362;33;20761;-74
2021/08/18 04:05:59;;;;;;;1.05;1.05;;;;;;;12.69;85.50;100286.81;8594117;33;20184;-74
2021/08/18 04:11:05;;;;;;;4.72;1.83;;;;;;;12.55;85.77;100285.38;8583776;33;20239;-73
2021/08/18 04:16:09;;;;;;;1.70;1.58;;;;;;;12.71;85.43;100282.13;8583477;33;20124;-73
2021/08/18 04:21:12;;;;;;;1.60;1.35;;;;;;;12.71;85.17;100267.81;8581590;33;20645;-73
2021/08/18 04:26:15;;;;;;;0.98;0.98;;;;;;;12.78;85.16;100277.91;8575752;33;21174;-74
2021/08/18 04:31:19;;;;;;;1.23;1.13;;;;;;;12.71;85.56;100282.13;8576697;33;21045;-72
2021/08/18 04:36:23;;;;;;;0.60;0.60;;;;;;;12.52;86.05;100280.25;8576849;33;20450;-72
2021/08/18 04:41:26;;;;;;;0.80;0.80;;;;;;;12.85;85.13;100293.50;8578097;33;20228;-72
2021/08/18 04:46:30;;;;;;;0.57;0.57;;;;;;;12.83;84.94;100297.19;8576796;33;20274;-72
2021/08/18 04:51:33;;;;;;;1.10;1.10;;;;;;;12.87;85.49;100307.69;8577772;33;21097;-72
2021/08/18 04:56:36;;;;;;;1.45;1.13;;;;;;;12.83;84.74;100299.00;8586429;33;20430;-72
2021/08/18 05:01:41;;;;;;;1.35;1.35;;;;;;;12.92;84.89;100282.00;8595573;33;20538;-72
2021/08/18 05:06:44;;;;;;;1.05;1.05;;;;;;;12.86;85.63;100285.25;8597307;33;20578;-72
2021/08/18 05:11:47;;;;;;;1.25;1.25;;;;;;;13.05;85.00;100287.97;8600104;33;20787;-72
2021/08/18 05:16:52;;;;;;;1.33;1.23;;;;;;;13.14;84.56;100283.56;8594428;33;20209;-72
2021/08/18 05:21:55;;;;;;;0.85;0.85;;;;;;;12.98;84.83;100289.53;8585723;33;20504;-72
2021/08/18 05:26:59;;;;;;;1.20;1.10;;;;;;;13.05;84.97;100290.66;8584815;33;20206;-72
2021/08/18 05:32:04;;;;;;;1.08;1.08;;;;;;;13.04;85.32;100297.03;8587031;33;20186;-72
2021/08/18 05:37:07;;;;;;;0.77;0.77;;;;;;;12.98;85.67;100299.47;8586477;33;20226;-72
2021/08/18 05:42:10;;;;;;;1.63;1.52;;;;;;;13.24;85.07;100294.31;8586749;33;20139;-72
2021/08/18 05:47:14;;;;;;;2.22;1.23;;;;;;;13.14;84.33;100293.50;8587558;33;20246;-72
2021/08/18 05:52:17;;;;;;;3.35;2.45;;;;;;;13.29;84.16;100300.13;8587625;33;20558;-72
2021/08/18 05:57:20;;;;;;;0.98;0.98;;;;;;;13.22;84.58;100304.44;8598976;33;20493;-72
2021/08/18 06:02:25;;;;;;;0.77;0.77;;;;;;;12.75;86.43;100301.56;8600674;33;20516;-72
2021/08/18 06:07:28;;;;;;;0.90;0.90;;;;;;;12.87;86.08;100307.69;8602882;33;20423;-72
2021/08/18 06:12:31;;;;;;;1.67;1.05;;;;;;;12.44;86.59;100317.81;8606738;33;20458;-72
2021/08/18 06:17:36;;;;;;;0.40;0.40;;;;;;;12.63;86.70;100316.16;8605609;33;20526;-72
2021/08/18 06:22:40;;;;;;;1.55;0.75;;;;;;;12.67;86.71;100313.06;8604748;33;20426;-72
2021/08/18 06:27:43;;;;;;;1.90;1.65;;;;;;;12.63;86.75;100322.41;8603351;33;20522;-72
2021/08/18 06:32:48;;;;;;;0.88;0.88;;;;;;;12.84;85.48;100314.22;8601193;33;20545;-71
2021/08/18 06:37:51;;;;;;;0.38;0.38;;;;;;;13.18;83.76;100319.16;8598498;33;20433;-72
2021/08/18 06:42:54;;;;;;;0.50;0.50;;;;;;;13.36;83.46;100316.63;8599784;33;20616;-72
2021/08/18 06:47:59;;;;;;;0.43;0.43;;;;;;;13.35;83.01;100315.75;8587705;33;21090;-72
2021/08/18 06:53:02;;;;;;;0.65;0.65;;;;;;;13.16;83.84;100318.44;8586225;33;20618;-72
2021/08/18 06:58:05;;;;;;;1.60;0.68;;;;;;;13.78;80.51;100308.16;8586437;33;20581;-72
2021/08/18 07:03:09;;;;;;;0.52;0.52;;;;;;;14.20;80.89;100318.50;8584879;33;20567;-72
2021/08/18 07:08:13;;;;;;;0.55;0.55;;;;;;;13.83;80.29;100306.72;8584304;33;20151;-73
2021/08/18 07:13:16;;;;;;;1.27;1.08;;;;;;;14.12;80.45;100316.53;8585464;33;20257;-73
2021/08/18 07:18:22;;;;;;;0.52;0.52;;;;;;;14.00;79.68;100309.66;8582590;33;20139;-72
2021/08/18 07:23:25;;;;;;;3.55;1.13;;;;;;;14.15;79.85;100311.72;8584524;33;20140;-72
2021/08/18 07:28:28;;;;;;;0.93;0.93;;;;;;;14.66;77.22;100308.59;8583937;33;21142;-72
2021/08/18 07:33:32;;;;;;;0.75;0.75;;;;;;;14.45;77.47;100308.88;8583585;33;20503;-72
2021/08/18 07:38:36;;;;;;;0.47;0.47;;;;;;;14.26;77.05;100298.97;8595923;33;20917;-72
2021/08/18 07:43:39;;;;;;;0.98;0.98;;;;;;;14.38;76.85;100300.50;8595738;33;20480;-72
2021/08/18 07:48:43;;;;;;;0.85;0.85;;;;;;;14.65;76.20;100296.94;8584055;33;20217;-72
2021/08/18 07:53:46;;;;;;;0.65;0.40;;;;;;;14.66;74.88;100305.91;8584924;33;20495;-72
2021/08/18 07:58:49;;;;;;;0.77;0.77;;;;;;;14.47;75.62;100306.88;8584071;33;20214;-72
2021/08/18 08:04:11;;;;;;;0.50;0.50;;;;;;;14.67;74.46;100302.19;8584192;33;20630;-72
2021/08/18 08:09:14;;;;;;;0.85;0.57;;;;;;;14.90;73.64;100316.13;8584289;33;20545;-73
2021/08/18 08:14:17;;;;;;;0.98;0.70;;;;;;;14.66;74.39;100314.84;8584849;33;20147;-72
2021/08/18 08:19:21;;;;;;;0.52;0.52;;;;;;;15.00;73.25;100316.88;8583035;33;20440;-73
2021/08/18 08:24:24;;;;;;;0.68;0.68;;;;;;;14.89;73.51;100331.50;8583288;33;20544;-73
2021/08/18 08:29:27;;;;;;;0.77;0.77;;;;;;;15.17;72.26;100329.56;8596064;33;20405;-73
2021/08/18 08:34:32;;;;;;;0.40;0.40;;;;;;;14.78;72.85;100332.56;8595436;33;20441;-72
2021/08/18 08:39:36;;;;;;;0.60;0.60;;;;;;;15.38;71.17;100333.81;8596955;33;20434;-73
2021/08/18 08:44:40;;;;;;;1.80;0.90;;;;;;;15.36;70.83;100331.28;8589514;33;20491;-73
2021/08/18 08:49:45;;;;;;;1.48;1.00;;;;;;;15.20;70.83;100320.28;8579862;33;20255;-73
2021/08/18 08:54:48;;;;;;;1.42;1.33;;;;;;;15.79;69.75;100334.13;8575234;33;20140;-73
2021/08/18 08:59:51;;;;;;;0.40;0.40;;;;;;;16.15;68.96;100335.69;8578128;33;20136;-73
2021/08/18 09:04:56;;;;;;;0.82;0.82;;;;;;;15.91;68.10;100341.81;8582338;33;21072;-73
2021/08/18 09:10:01;;;;;;;6.93;4.88;;;;;;;16.55;66.67;100336.88;8592045;33;20223;-72
2021/08/18 09:15:15;;;;;;;8.40;4.55;;;;;;;16.55;65.99;100334.16;8593628;33;20383;-73
2021/08/18 09:20:23;;;;;;;7.90;5.10;;;;;;;16.65;65.86;100341.31;8580046;33;20423;-73
2021/08/18 09:25:29;;;;;;;4.95;3.38;;;;;;;15.98;66.94;100330.34;8574221;33;20481;-73
2021/08/18 09:30:35;;;;;;;5.18;3.50;;;;;;;16.09;66.57;100339.03;8579572;33;20158;-73
2021/08/18 09:35:40;;;;;;;6.50;3.63;;;;;;;15.79;67.19;100339.53;8591002;33;20270;-73
2021/08/18 09:40:46;;;;;;;8.45;4.07;;;;;;;15.86;67.60;100333.31;8596940;33;20290;-73
2021/08/18 09:45:55;;;;;;;5.00;3.97;;;;;;;15.26;68.34;100331.31;8596224;33;20136;-73
2021/08/18 09:51:02;;;;;;;6.30;3.30;;;;;;;15.45;68.92;100348.44;8596640;33;20419;-72
2021/08/18 09:56:07;;;;;;;4.97;3.80;;;;;;;15.71;67.26;100334.91;8599669;33;20148;-73
2021/08/18 10:01:13;;;;;;;6.95;4.40;;;;;;;16.57;64.36;100344.88;8599836;33;20136;-73
2021/08/18 10:06:19;;;;;;;9.15;3.90;;;;;;;16.83;63.49;100347.47;8594301;33;20613;-74
2021/08/18 10:11:23;;;;;;;4.60;3.78;;;;;;;16.67;64.21;100350.13;8592522;33;20148;-73
2021/08/18 10:16:27;;;;;;;6.32;3.10;;;;;;;16.32;63.44;100343.94;8599581;33;20920;-73
2021/08/18 10:21:34;;;;;;;4.07;2.90;;;;;;;15.84;64.37;100348.03;8592896;33;20301;-73
2021/08/18 10:26:58;;;;;;;4.22;3.22;;;;;;;16.02;65.45;100339.84;8585004;33;20415;-73
2021/08/18 10:32:05;;;;;;;6.28;3.58;;;;;;;15.38;67.69;100350.91;8518814;27;20969;-71
2021/08/18 10:37:26;;;;;;;5.20;2.95;;;;;;;15.91;67.08;100343.69;8472437;33;20153;-70
2021/08/18 10:42:41;;;;;;;5.57;3.30;;;;;;;16.52;64.58;100353.47;8467888;33;20578;-72
2021/08/18 10:47:44;;;;;;;5.18;3.17;;;;;;;16.54;63.32;100340.63;8469491;34;20149;-71
2021/08/18 10:52:49;;;;;;;4.60;2.88;;;;;;;17.00;62.16;100332.94;8470113;33;20197;-71
2021/08/18 10:57:54;;;;;;;5.53;2.67;;;;;;;17.51;60.13;100338.22;8468416;33;20430;-71
2021/08/18 11:03:01;;;;;;;4.20;2.30;;;;;;;16.76;61.46;100332.88;8469952;33;20453;-71
2021/08/18 11:08:10;;;;;;;4.65;3.00;;;;;;;16.61;63.28;100334.53;8469091;33;20622;-71
2021/08/18 11:13:13;;;;;;;3.38;3.08;;;;;;;16.20;64.18;100337.03;8469301;33;20417;-71
2021/08/18 11:18:19;;;;;;;4.50;3.10;;;;;;;16.21;63.66;100333.31;8468607;34;20410;-71
2021/08/18 11:23:30;;;;;;;4.50;3.10;;;;;;;17.12;61.51;100324.47;8468385;33;20212;-72
2021/08/18 11:28:35;;;;;;;2.78;2.20;;;;;;;18.06;58.44;100323.03;8469374;33;20212;-72
2021/08/18 11:33:38;;;;;;;3.22;2.47;;;;;;;17.63;58.63;100314.28;8470220;33;20172;-71
2021/08/18 11:38:43;;;;;;;3.47;2.28;;;;;;;17.59;58.58;100312.94;8468524;33;20439;-70
2021/08/18 11:43:46;;;;;;;3.65;2.80;;;;;;;17.36;60.31;100310.06;8466514;33;20210;-72
2021/08/18 11:48:49;;;;;;;3.17;2.40;;;;;;;17.45;60.27;100318.03;8468747;33;20605;-71
2021/08/18 11:53:55;;;;;;;3.35;1.88;;;;;;;17.33;59.27;100315.81;8470487;33;21169;-71
2021/08/18 11:59:01;;;;;;;2.78;1.88;;;;;;;17.84;57.73;100322.72;8468078;33;20153;-72
2021/08/18 12:04:05;;;;;;;2.70;1.85;;;;;;;17.61;58.05;100322.59;8466798;33;20430;-72
2021/08/18 12:09:22;;;;;;;4.13;2.17;;;;;;;17.86;58.47;100315.25;8469576;33;20750;-72
2021/08/18 12:14:27;;;;;;;4.13;2.42;;;;;;;17.83;58.37;100304.75;8466410;34;20601;-72
2021/08/18 12:19:30;;;;;;;3.60;2.30;;;;;;;17.57;58.36;100298.69;8465237;33;20614;-71
2021/08/18 12:24:35;;;;;;;4.28;2.35;;;;;;;17.99;57.36;100294.84;8465302;33;20157;-72
2021/08/18 12:29:38;;;;;;;2.63;2.42;;;;;;;18.90;55.97;100296.97;8465797;33;21085;-72
2021/08/18 12:34:45;;;;;;;3.65;1.98;;;;;;;19.52;52.98;100284.19;8464957;34;20453;-72
2021/08/18 12:39:57;;;;;;;2.53;2.15;;;;;;;19.31;54.00;100269.44;8466223;33;20217;-72
2021/08/18 12:45:05;;;;;;;2.13;1.80;;;;;;;18.98;54.41;100277.88;8467963;33;20903;-72
2021/08/18 12:50:11;;;;;;;2.90;1.97;;;;;;;19.60;53.05;100265.09;8466536;33;21094;-72
2021/08/18 12:55:15;;;;;;;2.60;2.03;;;;;;;20.62;50.44;100253.41;8468000;33;20341;-72
2021/08/18 13:00:22;;;;;;;2.20;1.90;;;;;;;20.86;49.78;100266.69;8478556;33;20990;-72
2021/08/18 13:05:25;;;;;;;3.20;2.67;;;;;;;20.46;50.64;100268.13;8461443;33;20149;-72
2021/08/18 13:10:30;;;;;;;2.72;2.17;;;;;;;20.25;52.11;100256.13;8464090;34;20435;-72
2021/08/18 13:15:33;;;;;;;2.17;1.98;;;;;;;19.83;52.87;100254.94;8460929;34;20236;-72
2021/08/18 13:20:36;;;;;;;2.00;1.80;;;;;;;19.02;54.08;100253.84;8461388;33;20172;-72
2021/08/18 13:25:40;;;;;;;2.83;2.35;;;;;;;19.26;53.55;100250.06;8461427;33;20209;-72
2021/08/18 13:30:43;;;;;;;2.72;2.53;;;;;;;19.41;54.34;100255.53;8464322;33;20470;-72
2021/08/18 13:35:46;;;;;;;2.03;1.83;;;;;;;19.44;53.49;100272.38;8466295;33;20421;-72
2021/08/18 13:40:51;;;;;;;2.53;2.33;;;;;;;18.87;53.36;100250.22;8471682;33;20445;-72
2021/08/18 13:45:54;;;;;;;2.90;2.25;;;;;;;18.58;53.65;100241.72;8473373;33;20177;-72
2021/08/18 13:50:57;;;;;;;4.20;2.28;;;;;;;19.10;52.51;100240.16;8475364;33;20164;-72
2021/08/18 13:56:02;;;;;;;3.25;1.98;;;;;;;19.65;51.30;100247.13;8473290;33;20315;-72
2021/08/18 14:01:05;;;;;;;2.42;2.08;;;;;;;19.51;52.37;100247.94;8471550;33;20716;-72
2021/08/18 14:06:09;;;;;;;2.20;1.70;;;;;;;19.19;51.68;100241.78;8471861;33;20149;-72
2021/08/18 14:11:14;;;;;;;2.13;1.67;;;;;;;18.86;51.17;100240.38;8471594;33;20456;-72
2021/08/18 14:16:17;;;;;;;2.65;1.80;;;;;;;18.84;52.27;100237.84;8470717;33;20653;-72
2021/08/18 14:21:20;;;;;;;2.05;1.70;;;;;;;18.78;51.86;100242.13;8464462;33;20145;-72
2021/08/18 14:26:24;;;;;;;2.58;1.42;;;;;;;18.53;52.01;100238.69;8461896;33;20200;-72
2021/08/18 14:31:27;;;;;;;2.65;1.80;;;;;;;18.50;52.49;100241.78;8462104;33;20471;-72
2021/08/18 14:36:32;;;;;;;3.30;1.88;;;;;;;18.14;53.61;100236.03;8459535;33;20419;-72
2021/08/18 14:41:37;;;;;;;4.20;2.35;;;;;;;17.87;55.47;100246.31;8460472;33;20424;-72
2021/08/18 14:46:40;;;;;;;2.60;2.40;;;;;;;18.46;55.74;100237.72;8462001;33;20663;-72
2021/08/18 14:51:43;;;;;;;5.60;3.75;;;;;;;18.19;57.27;100236.34;8466539;33;20240;-72
2021/08/18 14:56:47;;;;;;;5.93;4.22;;;;;;;17.93;59.00;100228.44;8462971;33;20576;-72
2021/08/18 15:01:51;;;;;;;5.40;4.43;;;;;;;17.54;60.42;100233.84;8462434;33;20438;-72
2021/08/18 15:06:54;;;;;;;6.05;5.18;;;;;;;17.26;61.46;100236.94;8459992;33;20473;-72
2021/08/18 15:11:59;;;;;;;8.27;5.95;;;;;;;17.51;60.79;100234.19;8461382;34;20547;-72
2021/08/18 15:17:02;;;;;;;9.38;6.57;;;;;;;17.29;62.44;100224.91;8464605;33;20253;-72
2021/08/18 15:22:07;;;;;;;11.95;9.48;;;;;;;16.88;63.59;100250.16;8464741;33;20189;-72
2021/08/18 15:27:11;;;;;;;12.77;8.60;;;;;;;16.67;64.52;100247.91;8464870;33;20150;-72
2021/08/18 15:32:17;;;;;;;20.10;11.07;;;;;;;16.76;64.55;100240.66;8460497;34;20461;-72
2021/08/18 15:37:21;;;;;;;14.77;10.82;;;;;;;16.95;64.38;100239.47;8461737;33;20931;-72
2021/08/18 15:42:25;;;;;;;12.68;9.27;;;;;;;16.95;63.55;100240.34;8460491;33;20137;-72
2021/08/18 15:47:28;;;;;;;13.05;9.02;;;;;;;16.85;63.68;100234.22;8460143;33;20604;-72
2021/08/18 15:52:33;;;;;;;11.55;8.05;;;;;;;16.98;63.62;100245.41;8464019;33;20920;-72
2021/08/18 15:57:39;;;;;;;11.55;8.57;;;;;;;16.87;63.66;100221.34;8471381;33;20142;-72
2021/08/18 16:02:43;;;;;;;12.07;8.60;;;;;;;17.12;63.07;100214.03;8469706;33;20157;-72
2021/08/18 16:07:47;;;;;;;12.13;8.50;;;;;;;17.21;63.10;100209.47;8483417;33;20180;-72
2021/08/18 16:12:51;;;;;;;12.43;8.45;;;;;;;17.89;61.65;100199.94;8463717;33;20507;-72
2021/08/18 16:17:55;;;;;;;11.20;8.18;;;;;;;17.96;61.40;100198.19;8465661;33;20862;-72
2021/08/18 16:22:58;;;;;;;11.70;8.50;;;;;;;17.63;62.55;100192.06;8467875;33;20318;-72
2021/08/18 16:28:03;;;;;;;11.70;8.20;;;;;;;17.41;63.36;100183.63;8472198;33;20595;-72
2021/08/18 16:33:06;;;;;;;8.60;6.40;;;;;;;17.10;64.62;100188.94;8472228;33;20264;-71
2021/08/18 16:38:11;;;;;;;8.73;6.13;;;;;;;17.03;64.72;100183.34;8471422;33;20650;-71
2021/08/18 16:43:15;;;;;;;5.95;3.33;;;;;;;16.67;66.46;100171.16;8471024;33;20181;-71
2021/08/18 16:48:18;;;;;;;5.65;2.75;;;;;;;16.78;65.58;100187.94;8470900;33;20571;-71
2021/08/18 16:53:22;;;;;;;3.90;3.00;;;;;;;16.38;66.88;100172.50;8468432;33;20426;-71
2021/08/18 16:58:27;;;;;;;7.18;3.75;;;;;;;16.17;67.74;100183.75;8464380;33;20173;-71
2021/08/18 17:03:30;;;;;;;6.75;4.47;;;;;;;16.24;68.23;100176.69;8467897;33;20144;-70
2021/08/18 17:08:34;;;;;;;8.48;4.45;;;;;;;16.28;68.35;100175.34;8468696;33;20409;-72
2021/08/18 17:13:38;;;;;;;6.50;4.53;;;;;;;16.70;67.05;100178.94;8488702;33;20514;-71
2021/08/18 17:18:41;;;;;;;9.10;4.90;;;;;;;16.43;67.93;100171.97;8491228;33;20969;-72
2021/08/18 17:23:44;;;;;;;11.63;6.93;;;;;;;16.33;68.34;100175.69;8499165;33;21004;-71
2021/08/18 17:28:49;;;;;;;8.80;6.32;;;;;;;16.27;68.80;100168.25;8495091;33;20950;-72
2021/08/18 17:33:52;;;;;;;10.02;6.65;;;;;;;16.31;68.83;100164.16;8490196;33;20180;-72
2021/08/18 17:38:55;;;;;;;11.52;7.65;;;;;;;16.27;68.98;100167.41;8485823;33;20523;-72
2021/08/18 17:44:00;;;;;;;16.27;7.97;;;;;;;16.38;68.81;100166.22;8492188;33;20461;-72
2021/08/18 17:49:04;;;;;;;12.73;7.50;;;;;;;16.06;69.68;100163.25;8500260;33;20231;-71
2021/08/18 17:54:07;;;;;;;14.70;9.35;;;;;;;16.08;70.27;100157.66;8493550;33;20574;-72
2021/08/18 17:59:12;;;;;;;16.35;9.32;;;;;;;16.06;70.70;100163.25;8501067;33;20445;-71
2021/08/18 18:04:15;;;;;;;16.52;10.23;;;;;;;16.15;70.34;100156.84;8495683;33;21038;-72
2021/08/18 18:09:18;;;;;;;17.92;9.98;;;;;;;15.89;71.19;100167.78;8498617;33;21097;-72
2021/08/18 18:14:23;;;;;;;17.05;10.88;;;;;;;16.00;70.92;100160.34;8500483;33;20488;-72
2021/08/18 18:19:26;;;;;;;18.17;11.25;;;;;;;15.92;71.53;100158.47;8493111;33;20608;-72
2021/08/18 18:24:30;;;;;;;19.25;11.23;;;;;;;15.90;72.02;100157.78;8494840;33;21185;-70
2021/08/18 18:29:35;;;;;;;19.00;12.15;;;;;;;16.06;71.97;100148.84;8494528;33;20570;-72
2021/08/18 18:34:39;;;;;;;20.00;11.43;;;;;;;15.78;72.81;100148.28;8499116;33;20244;-71
2021/08/18 18:39:42;;;;;;;18.52;12.15;;;;;;;15.87;72.73;100142.69;8506488;33;20422;-71
2021/08/18 18:44:47;;;;;;;19.83;12.20;;;;;;;15.88;73.13;100144.41;8497156;33;20361;-72
2021/08/18 18:49:50;;;;;;;19.67;12.65;;;;;;;15.83;73.54;100138.66;8511175;33;20431;-72
2021/08/18 18:54:53;;;;;;;18.55;11.88;;;;;;;15.69;74.29;100142.81;8484295;33;20157;-71
2021/08/18 18:59:59;;;;;;;20.40;12.82;;;;;;;15.98;72.93;100138.84;8493434;33;20284;-71
2021/08/18 19:05:03;;;;;;;20.20;12.98;;;;;;;15.86;73.23;100140.19;8489471;33;20431;-71
2021/08/18 19:10:09;;;;;;;21.15;13.27;;;;;;;15.50;74.61;100156.63;8485185;33;20278;-71
2021/08/18 19:15:20;;;;;;;24.05;14.35;;;;;;;15.47;74.42;100143.41;8483903;33;20437;-71
2021/08/18 19:20:24;;;;;;;21.63;13.57;;;;;;;15.39;75.24;100152.34;8490798;33;20495;-71
2021/08/18 19:25:27;;;;;;;20.52;12.40;;;;;;;15.36;75.34;100138.25;8494000;33;20282;-70
2021/08/18 19:30:32;;;;;;;20.73;11.60;;;;;;;15.37;74.83;100140.81;8487765;33;20145;-70
2021/08/18 19:35:35;;;;;;;18.05;11.73;;;;;;;15.55;74.91;100157.00;8494313;33;20616;-71
2021/08/18 19:40:39;;;;;;;18.90;11.93;;;;;;;15.39;75.45;100154.19;8506719;33;20470;-71
2021/08/18 19:45:44;;;;;;;19.48;11.90;;;;;;;15.31;75.61;100156.84;8487756;33;20369;-71
2021/08/18 19:50:47;;;;;;;18.40;11.52;;;;;;;15.37;75.23;100150.81;8482954;33;20651;-71
2021/08/18 19:55:50;;;;;;;18.17;9.60;;;;;;;15.30;75.00;100153.25;8497421;33;20295;-72
2021/08/18 20:00:54;;;;;;;18.17;11.05;;;;;;;15.50;74.38;100145.78;8515107;33;20152;-71
2021/08/18 20:05:57;;;;;;;22.27;11.15;;;;;;;15.29;75.10;100159.69;8503591;33;20528;-72
2021/08/18 20:11:01;;;;;;;18.08;11.02;;;;;;;15.21;75.62;100157.78;8490353;33;20973;-71
2021/08/18 20:16:06;;;;;;;17.75;10.65;;;;;;;15.23;75.64;100153.06;8496017;33;20153;-71
2021/08/18 20:21:09;;;;;;;15.85;10.18;;;;;;;15.12;75.60;100147.91;8485955;33;20149;-71
2021/08/18 20:26:12;;;;;;;17.65;10.15;;;;;;;15.18;75.19;100151.84;8498820;33;20216;-71
2021/08/18 20:31:18;;;;;;;14.88;10.07;;;;;;;15.22;75.35;100154.06;8477700;33;20177;-71
2021/08/18 20:36:27;;;;;;;16.13;8.85;;;;;;;15.19;74.77;100153.53;8495876;33;21128;-71
2021/08/18 20:41:34;;;;;;;16.60;9.55;;;;;;;15.13;74.87;100151.47;8481160;33;20248;-71
2021/08/18 20:46:43;;;;;;;16.70;9.38;;;;;;;15.19;74.47;100154.41;8473133;33;20489;-71
2021/08/18 20:51:47;;;;;;;13.63;8.95;;;;;;;15.08;74.43;100142.97;8481766;33;20417;-71
2021/08/18 20:56:53;;;;;;;11.02;7.88;;;;;;;15.37;73.39;100142.69;8470377;33;20145;-71
2021/08/18 21:01:57;;;;;;;13.48;8.55;;;;;;;15.10;74.00;100151.78;8491382;33;20175;-71
2021/08/18 21:07:01;;;;;;;11.23;6.90;;;;;;;15.24;73.65;100151.19;8488907;33;20235;-70
2021/08/18 21:12:05;;;;;;;13.18;7.82;;;;;;;15.37;72.68;100158.91;8484451;33;20236;-70
2021/08/18 21:17:09;;;;;;;12.68;8.13;;;;;;;15.32;72.71;100164.78;8482889;33;20656;-71
2021/08/18 21:22:12;;;;;;;10.73;6.68;;;;;;;15.37;72.45;100154.34;8490342;33;20959;-70
2021/08/18 21:27:15;;;;;;;9.23;6.25;;;;;;;15.27;72.77;100162.53;8489229;33;20509;-71
2021/08/18 21:32:20;;;;;;;8.73;5.68;;;;;;;15.14;72.92;100172.09;8487523;33;20983;-71
2021/08/18 21:37:23;;;;;;;10.85;5.72;;;;;;;15.22;72.16;100170.31;8502456;33;20184;-71
2021/08/18 21:42:27;;;;;;;7.88;4.78;;;;;;;15.01;73.21;100164.41;8509509;33;20163;-71
2021/08/18 21:47:31;;;;;;;10.90;4.78;;;;;;;15.02;72.81;100168.81;8505722;33;20327;-71
2021/08/18 21:52:34;;;;;;;4.70;3.92;;;;;;;14.84;72.80;100158.06;8502820;33;20626;-71
2021/08/18 21:57:37;;;;;;;8.38;4.38;;;;;;;14.95;72.54;100156.94;8487190;33;20525;-71
2021/08/18 22:02:42;;;;;;;6.30;4.50;;;;;;;14.90;72.54;100164.69;8489177;33;20521;-70
2021/08/18 22:07:45;;;;;;;6.07;3.65;;;;;;;14.87;72.70;100149.63;8498611;33;20419;-71
2021/08/18 22:12:48;;;;;;;6.55;4.93;;;;;;;14.93;72.17;100154.38;8487276;33;20448;-71
2021/08/18 22:17:54;;;;;;;6.95;4.53;;;;;;;14.80;71.67;100153.94;8493536;33;20468;-70
2021/08/18 22:22:57;;;;;;;6.30;4.53;;;;;;;14.90;71.52;100157.41;8477873;33;20427;-71
2021/08/18 22:28:00;;;;;;;9.02;4.47;;;;;;;15.27;70.42;100157.13;8489056;33;20141;-71
2021/08/18 22:33:04;;;;;;;7.97;4.75;;;;;;;14.87;71.44;100144.22;8483719;33;20657;-71
2021/08/18 22:38:07;;;;;;;6.13;4.30;;;;;;;15.10;70.52;100144.53;8507664;33;20537;-72
2021/08/18 22:43:11;;;;;;;6.15;3.95;;;;;;;14.81;71.68;100148.41;8502413;33;20936;-72
2021/08/18 22:48:15;;;;;;;7.20;4.68;;;;;;;14.80;72.06;100149.38;8503705;33;20331;-72
2021/08/18 22:53:18;;;;;;;6.97;4.90;;;;;;;15.10;71.36;100155.34;8514573;33;20500;-72
2021/08/18 22:58:21;;;;;;;7.22;5.38;;;;;;;14.91;71.98;100142.88;8509217;33;20196;-72
2021/08/18 23:03:25;;;;;;;10.45;5.03;;;;;;;14.94;71.55;100147.97;8505239;33;20145;-73
2021/08/18 23:08:29;;;;;;;7.15;4.72;;;;;;;15.11;71.65;100140.81;8489435;33;20149;-72
2021/08/18 23:13:32;;;;;;;9.77;6.07;;;;;;;14.77;73.44;100140.75;8494715;33;20164;-72
2021/08/18 23:18:36;;;;;;;10.00;6.35;;;;;;;15.09;72.46;100147.41;8494156;33;20186;-73
2021/08/18 23:23:39;;;;;;;10.00;6.65;;;;;;;15.07;72.81;100141.28;8494041;33;20921;-72
2021/08/18 23:28:42;;;;;;;11.27;6.63;;;;;;;15.15;72.72;100128.66;8485148;33;20486;-72